createdAt,value
2019-04-25T00:01:43.919Z,100242.64
2019-04-25T00:04:15.951Z,100234.27
2019-04-25T00:06:47.183Z,100207.67
2019-04-25T00:09:21.882Z,100203.24
2019-04-25T00:11:53.257Z,100213.02
2019-04-25T00:14:24.560Z,100237.88
2019-04-25T00:16:55.926Z,100264.95
2019-04-25T00:19:27.107Z,100279.98
2019-04-25T00:22:07.684Z,100287.02
2019-04-25T00:24:47.255Z,100292.30
2019-04-25T00:27:19.730Z,100288.22
2019-04-25T00:29:51.670Z,100294.37
2019-04-25T00:32:23.086Z,100309.78
2019-04-25T00:34:54.435Z,100313.29
2019-04-25T00:37:25.791Z,100322.02
2019-04-25T00:39:57.014Z,100335.64
2019-04-25T00:42:28.262Z,100335.09
2019-04-25T00:44:59.568Z,100349.00
2019-04-25T00:47:31.554Z,100343.09
2019-04-25T00:50:02.904Z,100343.81
2019-04-25T00:52:34.112Z,100352.13
2019-04-25T00:55:05.580Z,100348.89
2019-04-25T00:57:38.908Z,100357.97
2019-04-25T01:00:46.979Z,100357.80
2019-04-25T01:03:23.714Z,100362.09
2019-04-25T01:05:54.920Z,100358.77
2019-04-25T01:08:26.421Z,100365.65
2019-04-25T01:10:57.691Z,100373.52
2019-04-25T01:13:28.833Z,100377.92
2019-04-25T01:15:59.981Z,100383.20
2019-04-25T01:18:31.487Z,100394.68
2019-04-25T01:21:04.329Z,100391.09
2019-04-25T01:23:37.299Z,100396.30
2019-04-25T01:26:08.670Z,100397.55
2019-04-25T01:28:39.966Z,100394.38
2019-04-25T01:31:14.779Z,100387.23
2019-04-25T01:33:46.778Z,100393.77
2019-04-25T01:36:33.415Z,100390.57
2019-04-25T01:39:15.954Z,100385.98
2019-04-25T01:41:56.359Z,100408.23
2019-04-25T01:44:31.496Z,100406.33
2019-04-25T01:47:04.185Z,100409.78
2019-04-25T01:49:35.438Z,100406.20
2019-04-25T01:52:06.952Z,100415.89
2019-04-25T01:54:38.262Z,100425.62
2019-04-25T01:57:09.927Z,100437.48
2019-04-25T01:59:41.149Z,100438.33
2019-04-25T02:02:15.148Z,100442.72
2019-04-25T02:04:46.507Z,100440.49
2019-04-25T02:07:17.681Z,100440.43
2019-04-25T02:09:48.944Z,100439.07
2019-04-25T02:12:43.693Z,100441.59
2019-04-25T02:15:16.583Z,100435.80
2019-04-25T02:17:47.744Z,100436.58
2019-04-25T02:20:18.982Z,100440.94
2019-04-25T02:22:50.197Z,100452.34
2019-04-25T02:25:22.995Z,100456.70
2019-04-25T02:27:55.722Z,100450.52
2019-04-25T02:30:27.669Z,100458.89
2019-04-25T02:33:02.769Z,100460.63
2019-04-25T02:35:35.015Z,100461.55
2019-04-25T02:38:08.791Z,100460.63
2019-04-25T02:40:39.819Z,100466.84
2019-04-25T02:43:11.060Z,100469.45
2019-04-25T02:46:07.429Z,100469.42
2019-04-25T02:49:01.405Z,100469.39
2019-04-25T02:51:44.976Z,100475.06
2019-04-25T02:54:15.626Z,100476.32
2019-04-25T02:56:46.902Z,100469.66
2019-04-25T02:59:18.054Z,100464.82
2019-04-25T03:01:49.449Z,100461.23
2019-04-25T03:04:20.638Z,100458.06
2019-04-25T03:06:51.896Z,100458.93
2019-04-25T03:09:24.959Z,100462.83
2019-04-25T03:11:55.928Z,100467.15
2019-04-25T03:14:27.089Z,100486.56
2019-04-25T03:16:59.202Z,100483.77
2019-04-25T03:19:54.224Z,100485.47
2019-04-25T03:22:28.286Z,100461.70
2019-04-25T03:25:02.240Z,100461.70
2019-04-25T03:27:34.035Z,100476.78
2019-04-25T03:30:11.259Z,100477.55
2019-04-25T03:32:39.878Z,100477.95
2019-04-25T03:35:11.159Z,100481.86
2019-04-25T03:37:43.610Z,100484.42
2019-04-25T03:40:14.868Z,100492.70
2019-04-25T03:42:46.091Z,100498.37
2019-04-25T03:45:17.336Z,100513.70
2019-04-25T03:47:48.558Z,100517.14
2019-04-25T03:50:19.811Z,100518.69
2019-04-25T03:52:50.952Z,100527.49
2019-04-25T03:55:23.969Z,100529.11
2019-04-25T03:57:56.347Z,100529.45
2019-04-25T04:00:27.630Z,100533.38
2019-04-25T04:03:00.628Z,100539.95
2019-04-25T04:05:31.881Z,100549.17
2019-04-25T04:08:04.316Z,100548.22
2019-04-25T04:10:35.905Z,100557.77
2019-04-25T04:13:07.487Z,100562.98
2019-04-25T04:15:39.696Z,100565.96
2019-04-25T04:18:29.809Z,100565.02
2019-04-25T04:21:19.867Z,100568.94
2019-04-25T04:24:07.522Z,100578.52
2019-04-25T04:26:38.670Z,100586.83
2019-04-25T04:29:10.083Z,100594.31
2019-04-25T04:31:43.086Z,100588.52
2019-04-25T04:34:15.552Z,100600.42
2019-04-25T04:36:46.841Z,100601.75
2019-04-25T04:39:18.806Z,100604.39
2019-04-25T04:41:50.072Z,100606.63
2019-04-25T04:44:21.287Z,100605.26
2019-04-25T04:46:53.843Z,100612.33
2019-04-25T04:49:25.030Z,100607.04
2019-04-25T04:51:56.315Z,100616.30
2019-04-25T04:54:27.440Z,100615.09
2019-04-25T04:56:58.613Z,100617.74
2019-04-25T04:59:29.879Z,100623.03
2019-04-25T05:02:23.553Z,100615.47
2019-04-25T05:05:24.766Z,100620.76
2019-04-25T05:08:16.406Z,100622.95
2019-04-25T05:10:48.078Z,100623.91
2019-04-25T05:13:19.831Z,100631.52
2019-04-25T05:15:51.102Z,100632.47
2019-04-25T05:18:34.553Z,100629.08
2019-04-25T05:20:55.260Z,100631.85
2019-04-25T05:23:26.667Z,100630.13
2019-04-25T05:25:57.869Z,100642.61
2019-04-25T05:28:29.075Z,100643.94
2019-04-25T05:31:18.161Z,100654.19
2019-04-25T05:33:49.378Z,100657.75
2019-04-25T05:36:20.654Z,100660.39
2019-04-25T05:38:51.919Z,100653.82
2019-04-25T05:41:36.011Z,100662.75
2019-04-25T05:44:07.289Z,100665.45
2019-04-25T05:46:38.524Z,100667.72
2019-04-25T05:49:09.708Z,100675.33
2019-04-25T05:51:40.909Z,100673.69
2019-04-25T05:54:13.971Z,100672.06
2019-04-25T05:56:45.073Z,100681.45
2019-04-25T05:59:17.939Z,100670.08
2019-04-25T06:01:49.626Z,100683.02
2019-04-25T06:04:21.033Z,100684.43
2019-04-25T06:06:53.050Z,100685.05
2019-04-25T06:09:54.441Z,100679.01
2019-04-25T06:12:48.867Z,100677.35
2019-04-25T06:15:23.727Z,100688.52
2019-04-25T06:18:14.527Z,100699.24
2019-04-25T06:20:45.919Z,100702.92
2019-04-25T06:23:41.860Z,100709.33
2019-04-25T06:26:22.841Z,100704.64
2019-04-25T06:28:53.779Z,100705.22
2019-04-25T06:31:19.988Z,100707.08
2019-04-25T06:33:51.306Z,100707.69
2019-04-25T06:36:24.289Z,100711.36
2019-04-25T06:38:55.380Z,100712.35
2019-04-25T06:41:27.081Z,100720.00
2019-04-25T06:44:00.189Z,100718.00
2019-04-25T06:46:53.593Z,100716.42
2019-04-25T06:49:27.902Z,100713.05
2019-04-25T06:51:59.282Z,100717.63
2019-04-25T06:54:30.463Z,100721.79
2019-04-25T06:57:01.672Z,100718.91
2019-04-25T06:59:34.404Z,100732.39
2019-04-25T07:02:05.764Z,100738.86
2019-04-25T07:04:37.025Z,100732.41
2019-04-25T07:07:12.331Z,100738.62
2019-04-25T07:09:41.228Z,100736.88
2019-04-25T07:12:13.445Z,100733.00
2019-04-25T07:14:44.796Z,100729.66
2019-04-25T07:17:15.996Z,100729.38
2019-04-25T07:19:47.315Z,100733.95
2019-04-25T07:22:18.570Z,100739.01
2019-04-25T07:24:49.775Z,100743.65
2019-04-25T07:27:38.601Z,100745.60
2019-04-25T07:30:48.658Z,100742.34
2019-04-25T07:33:17.625Z,100742.56
2019-04-25T07:35:48.829Z,100745.55
2019-04-25T07:38:19.970Z,100748.02
2019-04-25T07:40:51.211Z,100741.62
2019-04-25T07:43:23.356Z,100738.72
2019-04-25T07:45:54.621Z,100741.95
2019-04-25T07:48:26.833Z,100741.66
2019-04-25T07:50:58.132Z,100743.52
2019-04-25T07:53:30.697Z,100743.58
2019-04-25T07:56:04.160Z,100745.84
2019-04-25T07:58:49.142Z,100761.44
2019-04-25T08:01:15.929Z,100760.11
2019-04-25T08:03:47.151Z,100753.09
2019-04-25T08:06:18.430Z,100753.63
2019-04-25T08:08:49.688Z,100751.99
2019-04-25T08:11:20.860Z,100745.04
2019-04-25T08:14:11.060Z,100743.81
2019-04-25T08:16:44.820Z,100752.36
2019-04-25T08:19:16.260Z,100755.69
2019-04-25T08:21:47.754Z,100752.67
2019-04-25T08:24:20.040Z,100743.41
2019-04-25T08:26:51.295Z,100747.55
2019-04-25T08:29:25.272Z,100745.44
2019-04-25T08:31:56.077Z,100750.44
2019-04-25T08:34:27.302Z,100741.23
2019-04-25T08:36:58.477Z,100743.12
2019-04-25T08:39:30.433Z,100744.55
2019-04-25T08:42:03.361Z,100750.95
2019-04-25T08:44:35.721Z,100750.67
2019-04-25T08:47:07.453Z,100750.77
2019-04-25T08:49:46.004Z,100754.88
2019-04-25T08:52:18.332Z,100766.98
2019-04-25T08:55:06.541Z,100763.96
2019-04-25T08:57:55.846Z,100773.04
2019-04-25T09:01:00.907Z,100763.39
2019-04-25T09:03:36.623Z,100760.84
2019-04-25T09:06:09.446Z,100748.96
2019-04-25T09:08:41.081Z,100761.95
2019-04-25T09:11:13.345Z,100761.64
2019-04-25T09:13:45.050Z,100771.95
2019-04-25T09:16:16.408Z,100769.82
2019-04-25T09:18:47.660Z,100765.16
2019-04-25T09:21:18.891Z,100765.16
2019-04-25T09:23:50.110Z,100760.78
2019-04-25T09:26:21.307Z,100753.77
2019-04-25T09:28:53.680Z,100750.76
2019-04-25T09:31:25.093Z,100749.55
2019-04-25T09:33:56.985Z,100743.85
2019-04-25T09:36:28.219Z,100741.28
2019-04-25T09:39:03.774Z,100744.03
2019-04-25T09:41:36.500Z,100741.47
2019-04-25T09:44:09.312Z,100737.99
2019-04-25T09:46:40.487Z,100739.87
2019-04-25T09:49:25.879Z,100747.06
2019-04-25T09:52:16.395Z,100751.16
2019-04-25T09:54:53.533Z,100750.34
2019-04-25T09:57:56.044Z,100749.53
2019-04-25T10:00:36.593Z,100748.71
2019-04-25T10:03:07.896Z,100742.63
2019-04-25T10:05:39.206Z,100749.41
2019-04-25T10:08:10.415Z,100754.83
2019-04-25T10:10:42.480Z,100741.55
2019-04-25T10:13:13.741Z,100750.94
2019-04-25T10:16:04.402Z,100741.16
2019-04-25T10:18:37.740Z,100745.25
2019-04-25T10:21:14.341Z,100744.89
2019-04-25T10:23:46.753Z,100734.69
2019-04-25T10:26:19.784Z,100739.19
2019-04-25T10:28:51.793Z,100741.43
2019-04-25T10:31:24.110Z,100732.45
2019-04-25T10:33:55.302Z,100738.70
2019-04-25T10:36:26.670Z,100728.02
2019-04-25T10:39:07.635Z,100733.41
2019-04-25T10:41:33.296Z,100729.89
2019-04-25T10:44:04.401Z,100725.50
2019-04-25T10:46:35.608Z,100724.22
2019-04-25T10:49:07.155Z,100726.45
2019-04-25T10:51:38.364Z,100722.45
2019-04-25T10:54:09.682Z,100715.77
2019-04-25T10:56:41.707Z,100717.59
2019-04-25T10:59:14.414Z,100711.39
2019-04-25T11:01:47.228Z,100712.33
2019-04-25T11:04:30.536Z,100704.74
2019-04-25T11:07:03.615Z,100709.70
2019-04-25T11:09:34.691Z,100703.48
2019-04-25T11:12:08.574Z,100696.83
2019-04-25T11:14:39.999Z,100700.41
2019-04-25T11:17:13.220Z,100696.00
2019-04-25T11:19:45.165Z,100693.82
2019-04-25T11:22:16.505Z,100690.73
2019-04-25T11:24:48.584Z,100694.75
2019-04-25T11:27:20.021Z,100687.64
2019-04-25T11:29:53.556Z,100685.42
2019-04-25T11:32:27.675Z,100685.88
2019-04-25T11:34:59.671Z,100689.91
2019-04-25T11:37:34.210Z,100682.78
2019-04-25T11:40:24.527Z,100679.22
2019-04-25T11:42:55.825Z,100681.90
2019-04-25T11:45:27.025Z,100683.27
2019-04-25T11:47:58.610Z,100674.77
2019-04-25T11:50:29.997Z,100682.80
2019-04-25T11:53:01.388Z,100674.31
2019-04-25T11:55:32.638Z,100666.27
2019-04-25T11:58:03.861Z,100668.04
2019-04-25T12:00:35.069Z,100655.05
2019-04-25T12:03:08.312Z,100658.61
2019-04-25T12:05:39.787Z,100658.59
2019-04-25T12:08:13.450Z,100661.28
2019-04-25T12:10:45.770Z,100659.44
2019-04-25T12:13:17.873Z,100654.94
2019-04-25T12:15:49.840Z,100653.55
2019-04-25T12:18:21.050Z,100653.48
2019-04-25T12:20:53.271Z,100654.81
2019-04-25T12:23:25.126Z,100649.80
2019-04-25T12:25:56.300Z,100647.08
2019-04-25T12:28:27.562Z,100620.65
2019-04-25T12:30:58.852Z,100640.22
2019-04-25T12:33:30.144Z,100636.09
2019-04-25T12:36:01.542Z,100627.87
2019-04-25T12:38:33.483Z,100622.70
2019-04-25T12:41:06.446Z,100622.72
2019-04-25T12:43:39.373Z,100620.71
2019-04-25T12:46:16.235Z,100617.48
2019-04-25T12:48:47.637Z,100615.72
2019-04-25T12:51:20.198Z,100614.18
2019-04-25T12:53:51.418Z,100607.47
2019-04-25T12:56:24.573Z,100599.84
2019-04-25T12:58:56.559Z,100605.42
2019-04-25T13:01:27.804Z,100598.33
2019-04-25T13:03:58.992Z,100595.02
2019-04-25T13:06:30.205Z,100593.41
2019-04-25T13:09:01.632Z,100592.39
2019-04-25T13:11:34.909Z,100589.77
2019-04-25T13:14:07.316Z,100599.18
2019-04-25T13:16:38.905Z,100601.58
2019-04-25T13:19:20.071Z,100598.29
2019-04-25T13:21:43.944Z,100600.06
2019-04-25T13:24:15.296Z,100596.63
2019-04-25T13:26:53.558Z,100592.34
2019-04-25T13:29:49.496Z,100590.97
2019-04-25T13:32:38.442Z,100592.86
2019-04-25T13:35:16.983Z,100597.38
2019-04-25T13:37:48.262Z,100590.11
2019-04-25T13:40:19.441Z,100590.34
2019-04-25T13:42:50.685Z,100584.88
2019-04-25T13:45:22.259Z,100582.77
2019-04-25T13:47:53.544Z,100585.13
2019-04-25T13:50:25.202Z,100579.20
2019-04-25T13:52:57.350Z,100577.53
2019-04-25T13:55:28.628Z,100573.67
2019-04-25T13:57:59.844Z,100572.73
2019-04-25T14:00:31.164Z,100572.72
2019-04-25T14:03:02.370Z,100570.65
2019-04-25T14:05:35.309Z,100555.61
2019-04-25T14:08:06.906Z,100559.25
2019-04-25T14:10:38.098Z,100553.55
2019-04-25T14:13:09.285Z,100540.45
2019-04-25T14:15:45.264Z,100538.97
2019-04-25T14:18:34.505Z,100540.36
2019-04-25T14:21:11.022Z,100522.22
2019-04-25T14:23:42.177Z,100526.71
2019-04-25T14:26:13.520Z,100519.97
2019-04-25T14:28:44.746Z,100520.68
2019-04-25T14:31:35.481Z,100514.13
2019-04-25T14:33:51.735Z,100514.74
2019-04-25T14:36:25.009Z,100509.47
2019-04-25T14:38:56.190Z,100508.86
2019-04-25T14:41:28.128Z,100501.83
2019-04-25T14:43:59.361Z,100496.58
2019-04-25T14:46:30.617Z,100499.78
2019-04-25T14:49:01.876Z,100484.17
2019-04-25T14:51:33.130Z,100484.41
2019-04-25T14:54:06.277Z,100475.75
2019-04-25T14:56:57.982Z,100479.61
2019-04-25T14:59:29.252Z,100480.25
2019-04-25T15:02:00.459Z,100482.41
2019-04-25T15:04:31.732Z,100473.81
2019-04-25T15:07:03.040Z,100470.21
2019-04-25T15:09:34.270Z,100470.01
2019-04-25T15:12:05.571Z,100465.13
2019-04-25T15:14:36.720Z,100465.73
2019-04-25T15:17:09.191Z,100465.47
2019-04-25T15:19:40.504Z,100464.14
2019-04-25T15:22:11.883Z,100461.11
2019-04-25T15:24:43.108Z,100446.17
2019-04-25T15:27:14.277Z,100446.17
2019-04-25T15:29:45.435Z,100462.98
2019-04-25T15:32:19.937Z,100456.72
2019-04-25T15:34:55.148Z,100449.72
2019-04-25T15:37:45.267Z,100443.77
2019-04-25T15:40:26.363Z,100437.28
2019-04-25T15:43:06.633Z,100434.33
2019-04-25T15:46:06.252Z,100430.91
2019-04-25T15:48:38.457Z,100431.90
2019-04-25T15:51:09.778Z,100428.91
2019-04-25T15:53:41.061Z,100439.30
2019-04-25T15:56:12.328Z,100433.64
2019-04-25T15:58:43.630Z,100425.28
2019-04-25T16:01:14.911Z,100429.88
2019-04-25T16:03:46.331Z,100426.39
2019-04-25T16:06:17.635Z,100431.27
2019-04-25T16:08:49.042Z,100425.07
2019-04-25T16:11:20.393Z,100422.01
2019-04-25T16:13:51.690Z,100430.08
2019-04-25T16:16:22.888Z,100426.43
2019-04-25T16:18:54.185Z,100427.93
2019-04-25T16:21:25.383Z,100422.00
2019-04-25T16:23:57.844Z,100417.40
2019-04-25T16:26:29.576Z,100423.95
2019-04-25T16:29:00.894Z,100419.64
2019-04-25T16:31:33.155Z,100421.62
2019-04-25T16:34:04.375Z,100419.61
2019-04-25T16:36:35.541Z,100411.73
2019-04-25T16:39:09.160Z,100413.81
2019-04-25T16:41:42.628Z,100406.28
2019-04-25T16:44:15.631Z,100409.14
2019-04-25T16:46:46.847Z,100409.24
2019-04-25T16:49:18.114Z,100410.37
2019-04-25T16:51:49.383Z,100420.82
2019-04-25T16:54:21.311Z,100409.23
2019-04-25T16:56:52.535Z,100411.94
2019-04-25T16:59:23.721Z,100410.05
2019-04-25T17:01:55.179Z,100407.77
2019-04-25T17:04:29.723Z,100404.98
2019-04-25T17:07:02.157Z,100407.50
2019-04-25T17:09:33.879Z,100403.30
2019-04-25T17:12:06.281Z,100409.76
2019-04-25T17:14:46.062Z,100406.25
2019-04-25T17:17:40.432Z,100406.80
2019-04-25T17:20:17.622Z,100401.94
2019-04-25T17:22:48.824Z,100399.31
2019-04-25T17:25:20.382Z,100400.19
2019-04-25T17:27:51.695Z,100403.75
2019-04-25T17:30:23.275Z,100397.34
2019-04-25T17:33:04.430Z,100398.50
2019-04-25T17:35:58.941Z,100393.03
2019-04-25T17:38:49.246Z,100391.55
2019-04-25T17:41:20.684Z,100392.33
2019-04-25T17:43:52.956Z,100390.83
2019-04-25T17:46:24.175Z,100392.41
2019-04-25T17:48:55.350Z,100398.05
2019-04-25T17:51:26.628Z,100391.98
2019-04-25T17:53:59.034Z,100389.03
2019-04-25T17:56:30.422Z,100393.70
2019-04-25T17:59:01.665Z,100395.69
2019-04-25T18:01:34.053Z,100387.35
2019-04-25T18:04:05.894Z,100391.20
2019-04-25T18:06:37.680Z,100387.30
2019-04-25T18:09:09.087Z,100387.48
2019-04-25T18:11:42.257Z,100381.34
2019-04-25T18:14:13.606Z,100377.50
2019-04-25T18:16:46.501Z,100384.36
2019-04-25T18:19:37.265Z,100387.66
2019-04-25T18:22:15.678Z,100384.64
2019-04-25T18:25:24.398Z,100378.53
2019-04-25T18:28:04.452Z,100383.11
2019-04-25T18:30:35.801Z,100386.88
2019-04-25T18:33:16.825Z,100388.31
2019-04-25T18:35:48.755Z,100381.66
2019-04-25T18:38:39.660Z,100384.00
2019-04-25T18:41:20.318Z,100389.91
2019-04-25T18:43:56.405Z,100389.13
2019-04-25T18:46:40.485Z,100392.75
2019-04-25T18:49:12.684Z,100389.23
2019-04-25T18:51:55.170Z,100388.86
2019-04-25T18:54:34.014Z,100395.18
2019-04-25T18:57:23.159Z,100397.03
2019-04-25T19:00:13.364Z,100393.94
2019-04-25T19:03:02.053Z,100389.95
2019-04-25T19:05:52.272Z,100393.14
2019-04-25T19:08:24.530Z,100395.41
2019-04-25T19:10:55.779Z,100394.12
2019-04-25T19:13:27.044Z,100395.47
2019-04-25T19:15:58.259Z,100394.17
2019-04-25T19:18:29.463Z,100394.20
2019-04-25T19:21:00.782Z,100392.44
2019-04-25T19:23:32.041Z,100393.34
2019-04-25T19:26:03.293Z,100385.78
2019-04-25T19:28:34.463Z,100392.08
2019-04-25T19:31:05.649Z,100380.94
2019-04-25T19:33:37.419Z,100379.18
2019-04-25T19:36:08.658Z,100378.30
2019-04-25T19:38:40.649Z,100381.94
2019-04-25T19:41:29.884Z,100380.18
2019-04-25T19:44:05.011Z,100381.97
2019-04-25T19:46:41.484Z,100374.44
2019-04-25T19:49:13.008Z,100369.98
2019-04-25T19:51:45.077Z,100374.48
2019-04-25T19:54:17.505Z,100378.08
2019-04-25T19:56:49.620Z,100380.31
2019-04-25T19:59:20.928Z,100375.81
2019-04-25T20:01:53.925Z,100377.63
2019-04-25T20:04:44.392Z,100385.72
2019-04-25T20:07:34.590Z,100373.23
2019-04-25T20:10:29.420Z,100375.47
2019-04-25T20:13:00.781Z,100379.06
2019-04-25T20:15:32.009Z,100375.52
2019-04-25T20:18:03.182Z,100376.42
2019-04-25T20:20:34.444Z,100373.78
2019-04-25T20:23:05.591Z,100370.66
2019-04-25T20:25:36.980Z,100370.22
2019-04-25T20:28:08.212Z,100371.55
2019-04-25T20:30:39.447Z,100374.25
2019-04-25T20:33:10.825Z,100365.77
2019-04-25T20:35:42.092Z,100368.00
2019-04-25T20:38:13.420Z,100364.88
2019-04-25T20:40:45.203Z,100362.65
2019-04-25T20:43:17.555Z,100352.37
2019-04-25T20:45:48.870Z,100355.06
2019-04-25T20:48:20.093Z,100362.22
2019-04-25T20:50:52.379Z,100359.53
2019-04-25T20:53:23.923Z,100354.19
2019-04-25T20:55:55.067Z,100360.86
2019-04-25T20:58:26.390Z,100358.20
2019-04-25T21:00:59.216Z,100358.66
2019-04-25T21:03:30.535Z,100356.87
2019-04-25T21:06:10.416Z,100353.74
2019-04-25T21:08:41.755Z,100358.20
2019-04-25T21:11:12.988Z,100357.30
2019-04-25T21:14:02.050Z,100359.53
2019-04-25T21:16:51.860Z,100355.97
2019-04-25T21:19:27.104Z,100354.64
2019-04-25T21:21:58.730Z,100351.08
2019-04-25T21:24:31.039Z,100343.92
2019-04-25T21:27:02.604Z,100341.69
2019-04-25T21:29:33.931Z,100342.60
2019-04-25T21:32:05.187Z,100341.67
2019-04-25T21:34:36.515Z,100346.99
2019-04-25T21:37:08.042Z,100342.55
2019-04-25T21:39:51.506Z,100345.66
2019-04-25T21:42:56.220Z,100346.57
2019-04-25T21:45:27.862Z,100339.86
2019-04-25T21:47:59.342Z,100351.00
2019-04-25T21:50:30.912Z,100353.23
2019-04-25T21:53:02.399Z,100350.10
2019-04-25T21:55:34.732Z,100348.77
2019-04-25T21:58:06.829Z,100347.43
2019-04-25T22:00:56.583Z,100345.20
2019-04-25T22:03:30.082Z,100342.96
2019-04-25T22:06:01.659Z,100344.30
2019-04-25T22:08:33.387Z,100341.17
2019-04-25T22:11:05.530Z,100340.70
2019-04-25T22:13:37.078Z,100336.70
2019-04-25T22:16:08.890Z,100339.38
2019-04-25T22:18:40.536Z,100341.58
2019-04-25T22:21:12.152Z,100340.68
2019-04-25T22:23:43.889Z,100335.77
2019-04-25T22:26:15.138Z,100333.53
2019-04-25T22:28:46.605Z,100332.67
2019-04-25T22:31:23.016Z,100323.28
2019-04-25T22:34:18.937Z,100327.30
2019-04-25T22:36:50.456Z,100326.39
2019-04-25T22:39:21.618Z,100320.16
2019-04-25T22:41:52.857Z,100323.73
2019-04-25T22:44:24.347Z,100323.70
2019-04-25T22:46:55.905Z,100320.16
2019-04-25T22:49:28.787Z,100319.25
2019-04-25T22:52:01.672Z,100313.45
2019-04-25T22:54:33.919Z,100309.01
2019-04-25T22:57:05.084Z,100309.44
2019-04-25T22:59:36.918Z,100303.20
2019-04-25T23:02:26.157Z,100310.75
2019-04-25T23:05:19.596Z,100299.16
2019-04-25T23:07:52.120Z,100301.33
2019-04-25T23:10:23.531Z,100303.09
2019-04-25T23:12:54.756Z,100293.31
2019-04-25T23:15:25.979Z,100295.09
2019-04-25T23:17:57.438Z,100291.52
2019-04-25T23:20:28.574Z,100288.84
2019-04-25T23:22:59.735Z,100277.70
2019-04-25T23:25:49.878Z,100274.59
2019-04-25T23:28:22.521Z,100280.80
2019-04-25T23:31:12.551Z,100280.36
2019-04-25T23:33:44.044Z,100275.45
2019-04-25T23:36:15.611Z,100276.33
2019-04-25T23:38:46.782Z,100279.47
2019-04-25T23:41:18.295Z,100278.99
2019-04-25T23:43:49.475Z,100271.45
2019-04-25T23:46:20.692Z,100268.78
2019-04-25T23:48:51.811Z,100266.98
2019-04-25T23:51:23.030Z,100263.87
2019-04-25T23:53:54.392Z,100258.54
2019-04-25T23:56:25.613Z,100253.63
2019-04-25T23:58:56.950Z,100250.97
